Time;durP1;ratioP1;P1;durP2;ratioP2;P2;SDS_P1;SDS_P2;PMS_P1;PMS_P2;Temp;Humidity;BMP_temperature;BMP_pressure;BME280_temperature;BME280_humidity;BME280_pressure;Samples;Min_cycle;Max_cycle;Signal;HPM_P1;HPM_P2
2021/09/14 00:00:15;;;;;;;0.20;0.20;;;;;;;17.48;62.57;101773.19;5035357;28;20044;-84
2021/09/14 00:02:42;;;;;;;0.20;0.20;;;;;;;17.48;62.85;101773.19;5030228;28;20025;-83
2021/09/14 00:05:09;;;;;;;1.00;0.90;;;;;;;17.47;62.55;101756.25;5034073;28;20106;-81
2021/09/14 00:07:35;;;;;;;0.10;0.10;;;;;;;17.46;62.80;101755.34;5034592;28;21119;-83
2021/09/14 00:10:07;;;;;;;0.10;0.10;;;;;;;17.44;62.79;101743.81;5031027;28;20041;-83
2021/09/14 00:12:34;;;;;;;0.10;0.10;;;;;;;17.44;62.88;101742.94;5033859;28;20079;-83
2021/09/14 00:15:03;;;;;;;0.00;0.00;;;;;;;17.42;62.82;101742.13;5034340;28;20064;-83
2021/09/14 00:17:29;;;;;;;0.10;0.10;;;;;;;17.41;62.98;101749.28;5034933;28;20037;-83
2021/09/14 00:19:59;;;;;;;0.10;0.10;;;;;;;17.42;62.68;101743.00;5034087;28;20116;-84
2021/09/14 00:22:26;;;;;;;0.00;0.00;;;;;;;17.37;62.87;101744.97;5034525;28;20492;-84
2021/09/14 00:24:54;;;;;;;0.10;0.10;;;;;;;17.37;62.93;101744.06;5034728;28;20080;-83
2021/09/14 00:27:20;;;;;;;0.10;0.10;;;;;;;17.37;62.76;101744.06;5034290;28;20021;-83
2021/09/14 00:29:48;;;;;;;0.50;0.50;;;;;;;17.38;63.05;101756.56;5034230;28;20048;-85
2021/09/14 00:32:15;;;;;;;0.10;0.10;;;;;;;17.37;63.16;101742.28;5035387;28;20028;-83
2021/09/14 00:34:42;;;;;;;0.10;0.10;;;;;;;17.38;62.71;101746.69;5031545;28;20033;-85
2021/09/14 00:37:09;;;;;;;0.10;0.10;;;;;;;17.39;63.24;101748.44;5035647;28;20034;-84
2021/09/14 00:39:36;;;;;;;0.22;0.22;;;;;;;17.44;63.11;101745.63;5032047;28;20098;-83
2021/09/14 00:42:02;;;;;;;0.00;0.00;;;;;;;17.49;63.21;101742.78;5032498;28;20493;-83
2021/09/14 00:44:29;;;;;;;0.10;0.10;;;;;;;17.55;63.04;101747.94;5032799;28;20040;-84
2021/09/14 00:46:55;;;;;;;0.03;0.03;;;;;;;17.58;63.17;101743.34;5032508;28;20427;-83
2021/09/14 00:49:22;;;;;;;0.10;0.10;;;;;;;17.63;63.09;101745.84;5030191;28;20026;-83
2021/09/14 00:51:49;;;;;;;0.10;0.10;;;;;;;17.70;63.07;101752.75;5033006;28;20024;-83
2021/09/14 00:54:18;;;;;;;0.03;0.03;;;;;;;17.76;63.07;101749.00;5033421;28;20017;-83
2021/09/14 00:56:45;;;;;;;0.40;0.40;;;;;;;17.79;63.58;101748.88;5032976;28;20026;-83
2021/09/14 00:59:12;;;;;;;0.10;0.10;;;;;;;17.83;63.39;101747.84;5032408;28;20068;-84
2021/09/14 01:01:39;;;;;;;0.10;0.10;;;;;;;17.89;63.02;101747.59;5033253;28;20024;-82
2021/09/14 01:04:06;;;;;;;0.10;0.10;;;;;;;17.92;63.04;101744.81;5033547;28;20120;-83
2021/09/14 01:06:34;;;;;;;0.10;0.10;;;;;;;17.98;63.13;101741.09;5033952;28;20424;-84
2021/09/14 01:09:01;;;;;;;0.20;0.20;;;;;;;18.00;63.13;101735.66;5032680;28;20080;-83
2021/09/14 01:11:30;;;;;;;0.20;0.20;;;;;;;18.04;63.02;101734.59;5032822;28;20021;-83
2021/09/14 01:14:05;;;;;;;0.10;0.10;;;;;;;18.08;63.02;101726.41;5032802;28;20030;-83
2021/09/14 01:16:33;;;;;;;0.20;0.20;;;;;;;18.06;63.12;101733.59;5034837;28;20025;-83
2021/09/14 01:19:01;;;;;;;0.20;0.20;;;;;;;18.08;62.93;101726.41;5033633;28;20026;-83
2021/09/14 01:21:28;;;;;;;0.08;0.08;;;;;;;18.10;63.13;101729.00;5033805;28;20032;-83
2021/09/14 01:23:59;;;;;;;0.10;0.10;;;;;;;18.13;63.02;101730.69;5032115;28;20072;-83
2021/09/14 01:26:26;;;;;;;0.00;0.00;;;;;;;18.16;63.08;101730.59;5032797;28;20026;-83
2021/09/14 01:28:54;;;;;;;0.10;0.10;;;;;;;18.17;63.24;101732.31;5032387;28;20106;-83
2021/09/14 01:31:21;;;;;;;0.30;0.30;;;;;;;18.20;63.07;101733.09;5029661;28;20468;-84
2021/09/14 01:33:51;;;;;;;0.08;0.08;;;;;;;18.22;63.09;101722.31;5035504;28;20028;-83
2021/09/14 01:36:19;;;;;;;0.10;0.10;;;;;;;18.22;62.79;101722.31;5033036;28;20502;-84
2021/09/14 01:38:46;;;;;;;0.25;0.25;;;;;;;18.21;63.19;101723.25;5032122;28;20499;-84
2021/09/14 01:41:13;;;;;;;0.10;0.10;;;;;;;18.19;62.97;101714.38;5030966;28;20037;-83
2021/09/14 01:43:40;;;;;;;0.20;0.20;;;;;;;18.16;62.72;101717.19;5033193;28;20057;-85
2021/09/14 01:46:08;;;;;;;0.10;0.10;;;;;;;18.13;62.94;101717.28;5034414;28;20040;-84
2021/09/14 01:48:35;;;;;;;0.10;0.10;;;;;;;18.10;62.71;101718.28;5034840;28;20044;-83
2021/09/14 01:51:02;;;;;;;0.10;0.10;;;;;;;18.09;62.82;101717.41;5046734;28;20099;-83
2021/09/14 01:53:28;;;;;;;0.10;0.10;;;;;;;18.06;62.98;101717.53;5040931;28;20029;-83
2021/09/14 01:56:00;;;;;;;0.03;0.03;;;;;;;18.05;63.11;101717.59;5046260;28;20029;-83
2021/09/14 01:58:27;;;;;;;0.10;0.10;;;;;;;18.03;63.53;101711.41;5042105;28;20037;-83
2021/09/14 02:01:06;;;;;;;0.10;0.10;;;;;;;18.02;63.09;101706.97;5043037;28;20029;-82
2021/09/14 02:03:49;;;;;;;0.10;0.10;;;;;;;18.00;63.23;101707.03;5035197;28;20033;-83
2021/09/14 02:38:24;;;;;;;0.43;0.30;;;;;;;17.84;63.32;101684.38;5053899;28;20095;-83
2021/09/14 02:59:10;;;;;;;0.10;0.10;;;;;;;17.38;63.69;101670.84;5070443;28;20469;-83
2021/09/14 03:01:37;;;;;;;0.10;0.10;;;;;;;17.35;63.26;101663.78;5056089;28;20033;-83
2021/09/14 03:04:05;;;;;;;0.25;0.25;;;;;;;17.32;63.53;101663.00;5050107;28;20380;-83
2021/09/14 03:06:32;;;;;;;0.10;0.10;;;;;;;17.29;63.69;101664.00;5038284;28;20029;-83
2021/09/14 03:08:58;;;;;;;0.70;0.40;;;;;;;17.27;63.60;101663.16;5039296;28;20057;-83
2021/09/14 03:11:25;;;;;;;0.10;0.10;;;;;;;17.25;63.54;101660.56;5038970;28;20030;-83
2021/09/14 03:13:51;;;;;;;0.08;0.08;;;;;;;17.23;63.77;101654.34;5051183;28;20031;-83
2021/09/14 03:16:17;;;;;;;0.00;0.00;;;;;;;17.20;63.75;101651.81;5052386;28;20032;-82
2021/09/14 03:18:44;;;;;;;0.10;0.10;;;;;;;17.18;63.89;101647.44;5062463;28;20482;-83
2021/09/14 03:21:12;;;;;;;0.10;0.10;;;;;;;17.14;63.40;101642.16;5067281;28;20443;-83
2021/09/14 03:23:39;;;;;;;0.00;0.00;;;;;;;17.10;63.94;101635.19;5051553;28;20033;-83
2021/09/14 03:26:05;;;;;;;0.10;0.10;;;;;;;17.06;64.27;101630.88;5052462;28;20033;-83
2021/09/14 03:28:32;;;;;;;0.45;0.45;;;;;;;17.03;63.90;101630.97;5057349;28;20033;-83
2021/09/14 03:30:58;;;;;;;0.35;0.35;;;;;;;16.99;63.94;101621.28;5057711;28;20025;-83
2021/09/14 03:33:24;;;;;;;0.10;0.10;;;;;;;16.97;64.05;101620.47;5065196;28;20032;-83
2021/09/14 03:35:51;;;;;;;0.03;0.03;;;;;;;16.93;64.34;101626.84;5054730;28;20079;-83
2021/09/14 03:38:18;;;;;;;0.00;0.00;;;;;;;16.91;64.15;101623.31;5049508;28;20502;-83
2021/09/14 03:40:44;;;;;;;0.22;0.22;;;;;;;16.89;64.10;101614.47;5054813;28;20043;-83
2021/09/14 03:43:13;;;;;;;0.10;0.10;;;;;;;16.86;64.12;101609.22;5047581;28;20365;-83
2021/09/14 03:45:40;;;;;;;0.10;0.10;;;;;;;16.84;64.33;101611.09;5051588;28;20387;-83
2021/09/14 03:48:06;;;;;;;0.10;0.10;;;;;;;16.84;64.38;101621.78;5057179;28;20129;-83
2021/09/14 03:50:33;;;;;;;0.05;0.05;;;;;;;16.81;64.36;101620.97;5055275;28;20116;-83
2021/09/14 03:52:59;;;;;;;0.10;0.10;;;;;;;16.81;64.10;101622.78;5064580;28;20025;-83
2021/09/14 03:55:25;;;;;;;0.17;0.17;;;;;;;16.80;64.33;101624.56;5055390;28;20472;-83
2021/09/14 03:57:52;;;;;;;0.10;0.10;;;;;;;16.78;64.32;101621.06;5046444;28;20120;-84
2021/09/14 04:00:18;;;;;;;0.10;0.10;;;;;;;16.78;64.09;101620.19;5053169;28;20033;-83
2021/09/14 04:02:48;;;;;;;0.10;0.10;;;;;;;16.76;64.18;101620.25;5058549;28;20107;-83
2021/09/14 04:10:56;;;;;;;0.10;0.10;;;;;;;16.70;64.30;101614.22;5078928;27;20446;-83
2021/09/14 04:13:23;;;;;;;0.10;0.10;;;;;;;16.65;64.38;101623.28;5057302;28;20032;-83
2021/09/14 04:15:49;;;;;;;0.10;0.10;;;;;;;16.64;64.61;101615.31;5058380;28;20032;-83
2021/09/14 04:18:15;;;;;;;0.05;0.05;;;;;;;16.64;63.85;101613.50;5051058;28;20017;-83
2021/09/14 04:20:41;;;;;;;0.10;0.10;;;;;;;16.62;63.88;101617.16;5037136;28;20412;-83
2021/09/14 04:23:07;;;;;;;0.10;0.10;;;;;;;16.59;64.18;101603.88;5037422;28;20424;-83
2021/09/14 04:25:34;;;;;;;0.35;0.35;;;;;;;16.57;64.12;101611.06;5039810;28;20042;-82
2021/09/14 04:28:00;;;;;;;0.17;0.17;;;;;;;16.56;64.28;101602.19;5034785;28;20037;-83
2021/09/14 04:30:26;;;;;;;0.10;0.10;;;;;;;16.53;64.66;101612.97;5046684;28;20037;-83
2021/09/14 04:32:52;;;;;;;0.10;0.10;;;;;;;16.50;64.44;101611.28;5036377;28;20033;-83
2021/09/14 04:35:19;;;;;;;0.10;0.10;;;;;;;16.48;64.43;101607.75;5040749;28;20041;-83
2021/09/14 04:37:45;;;;;;;0.10;0.10;;;;;;;16.47;64.18;101606.03;5043244;28;20079;-84
2021/09/14 04:40:12;;;;;;;0.10;0.10;;;;;;;16.46;64.12;101606.97;5031925;28;20022;-82
2021/09/14 04:42:38;;;;;;;0.10;0.10;;;;;;;16.46;64.41;101612.31;5048435;28;20468;-83
2021/09/14 04:45:05;;;;;;;0.10;0.10;;;;;;;16.44;64.52;101598.09;5042123;28;20477;-83
2021/09/14 04:47:32;;;;;;;0.10;0.10;;;;;;;16.44;64.87;101602.59;5041758;28;20033;-83
2021/09/14 04:49:58;;;;;;;0.10;0.10;;;;;;;16.44;64.35;101597.25;5033430;28;20033;-83
2021/09/14 04:52:24;;;;;;;0.10;0.10;;;;;;;16.44;64.49;101603.44;5037996;28;20033;-84
2021/09/14 04:54:50;;;;;;;1.00;1.00;;;;;;;16.45;64.39;101588.28;5043789;28;20041;-83
2021/09/14 04:57:17;;;;;;;0.08;0.08;;;;;;;16.45;64.19;101589.16;5033189;28;20032;-83
2021/09/14 04:59:43;;;;;;;1.00;1.00;;;;;;;16.47;64.15;101590.00;5042687;28;20052;-84
2021/09/14 05:02:09;;;;;;;0.63;0.55;;;;;;;16.47;64.29;101590.00;5033261;28;20030;-84
2021/09/14 05:04:39;;;;;;;0.10;0.10;;;;;;;16.49;64.09;101598.81;5043906;28;20029;-83
2021/09/14 05:07:05;;;;;;;0.10;0.10;;;;;;;16.48;64.49;101605.09;5036729;28;20102;-84
2021/09/14 05:09:31;;;;;;;0.47;0.47;;;;;;;16.50;64.18;101605.94;5037130;28;20044;-84
2021/09/14 05:11:58;;;;;;;0.13;0.13;;;;;;;16.52;64.41;101600.50;5037212;28;20130;-83
2021/09/14 05:14:24;;;;;;;1.15;1.10;;;;;;;16.52;64.40;101591.63;5034557;28;20030;-83
2021/09/14 05:16:50;;;;;;;0.30;0.30;;;;;;;16.55;64.21;101599.53;5041563;28;20079;-83
2021/09/14 05:19:31;;;;;;;0.10;0.10;;;;;;;16.58;64.17;101615.50;5034822;28;20056;-84
2021/09/14 05:21:59;;;;;;;0.47;0.47;;;;;;;16.59;64.46;101611.91;5031519;28;20108;-83
2021/09/14 05:24:27;;;;;;;1.17;0.50;;;;;;;16.62;64.50;101601.09;5019494;28;20037;-84
2021/09/14 05:26:54;;;;;;;0.17;0.17;;;;;;;16.64;64.31;101607.28;5029088;28;20032;-84
2021/09/14 05:29:21;;;;;;;0.10;0.10;;;;;;;16.67;64.07;101596.47;5025559;28;20041;-82
2021/09/14 05:31:48;;;;;;;0.10;0.10;;;;;;;16.68;64.46;101598.22;5033469;28;20083;-84
2021/09/14 05:34:15;;;;;;;0.10;0.10;;;;;;;16.72;64.31;101597.16;5017893;28;20062;-84
2021/09/14 05:36:43;;;;;;;0.10;0.10;;;;;;;16.73;64.24;101604.28;5025880;28;20034;-84
2021/09/14 05:39:09;;;;;;;0.10;0.10;;;;;;;16.75;64.19;101602.44;5022641;28;20033;-85
2021/09/14 05:41:35;;;;;;;0.10;0.10;;;;;;;16.78;64.19;101599.63;5015668;28;20057;-84
2021/09/14 05:44:02;;;;;;;0.25;0.25;;;;;;;16.81;64.25;101586.16;5019934;28;20026;-81
2021/09/14 05:46:28;;;;;;;0.20;0.20;;;;;;;16.85;64.06;101576.25;5017192;28;20033;-83
2021/09/14 05:48:54;;;;;;;0.00;0.00;;;;;;;16.89;64.30;101572.50;5031816;28;20488;-82
2021/09/14 05:51:20;;;;;;;0.10;0.10;;;;;;;16.92;64.09;101563.53;5017083;28;20489;-84
2021/09/14 05:53:47;;;;;;;0.10;0.10;;;;;;;16.92;64.31;101566.22;5015251;28;20037;-85
2021/09/14 05:56:14;;;;;;;0.52;0.52;;;;;;;16.94;63.96;101559.88;5015461;28;20073;-85
2021/09/14 05:58:41;;;;;;;0.10;0.10;;;;;;;16.96;64.03;101574.09;5015266;28;20121;-85
2021/09/14 06:01:08;;;;;;;0.10;0.10;;;;;;;16.99;64.17;101567.75;5015074;28;20469;-84
2021/09/14 06:03:34;;;;;;;0.10;0.10;;;;;;;17.02;64.14;101572.97;5014817;28;20026;-85
2021/09/14 06:06:01;;;;;;;0.80;0.73;;;;;;;17.04;64.13;101565.78;5014986;28;20461;-85
2021/09/14 06:08:27;;;;;;;0.20;0.20;;;;;;;17.08;64.20;101562.06;5014761;28;20057;-84
2021/09/14 06:10:53;;;;;;;0.10;0.10;;;;;;;17.09;64.64;101563.81;5015336;28;20101;-84
2021/09/14 06:13:20;;;;;;;0.00;0.00;;;;;;;17.14;64.21;101564.50;5014955;28;20113;-84
2021/09/14 06:15:46;;;;;;;0.22;0.22;;;;;;;17.18;64.23;101567.09;5015090;28;20036;-83
2021/09/14 06:18:12;;;;;;;0.40;0.40;;;;;;;17.23;63.93;101557.94;5018636;28;20362;-78
2021/09/14 06:20:39;;;;;;;1.48;1.38;;;;;;;17.24;64.12;101562.38;5034231;28;20388;-84
2021/09/14 06:23:05;;;;;;;0.10;0.10;;;;;;;17.27;64.10;101567.66;5034296;28;20041;-84
2021/09/14 06:25:31;;;;;;;0.03;0.03;;;;;;;17.30;64.47;101574.69;5034073;28;20400;-84
2021/09/14 06:27:57;;;;;;;0.10;0.10;;;;;;;17.32;64.41;101575.50;5033553;28;20033;-78
2021/09/14 06:30:23;;;;;;;0.10;0.10;;;;;;;17.37;64.20;101570.84;5033738;28;20500;-84
2021/09/14 06:32:49;;;;;;;0.10;0.10;;;;;;;17.41;64.22;101569.81;5022990;28;20431;-84
2021/09/14 06:35:15;;;;;;;0.10;0.10;;;;;;;17.44;63.79;101569.69;5026454;28;20025;-84
2021/09/14 06:37:42;;;;;;;0.25;0.25;;;;;;;17.46;64.16;101570.50;5027709;28;20112;-82
2021/09/14 06:40:08;;;;;;;0.10;0.10;;;;;;;17.52;63.86;101572.09;5031924;28;20025;-81
2021/09/14 06:42:34;;;;;;;0.13;0.13;;;;;;;17.56;64.14;101571.03;5034281;28;20033;-81
2021/09/14 06:45:01;;;;;;;0.15;0.15;;;;;;;17.59;64.13;101568.22;5031744;28;20396;-82
2021/09/14 06:47:48;;;;;;;1.05;0.95;;;;;;;17.73;64.04;101581.13;5029255;28;20037;-80
2021/09/14 06:50:14;;;;;;;4.30;1.00;;;;;;;17.71;64.22;101579.44;5029845;28;20033;-81
2021/09/14 06:52:46;;;;;;;0.10;0.10;;;;;;;17.77;63.84;101581.88;5031114;28;20042;-78
2021/09/14 06:55:12;;;;;;;0.10;0.10;;;;;;;17.84;64.02;101582.50;5031565;28;20021;-78
2021/09/14 06:57:38;;;;;;;0.15;0.15;;;;;;;17.92;63.88;101575.06;5029751;28;20063;-81
2021/09/14 07:00:10;;;;;;;0.20;0.20;;;;;;;18.01;64.15;101569.34;5054090;28;20119;-84
2021/09/14 07:02:39;;;;;;;0.40;0.40;;;;;;;17.98;63.96;101580.22;5042741;28;20500;-77
2021/09/14 07:05:06;;;;;;;0.52;0.52;;;;;;;17.98;64.28;101580.22;5026989;28;20033;-76
2021/09/14 07:07:33;;;;;;;0.20;0.20;;;;;;;18.08;63.94;101578.91;5027984;28;20116;-77
2021/09/14 07:09:59;;;;;;;0.10;0.10;;;;;;;18.14;63.86;101568.84;5029042;28;20056;-77
2021/09/14 07:12:27;;;;;;;0.10;0.10;;;;;;;18.13;64.12;101567.09;5013879;28;20113;-77
2021/09/14 07:14:53;;;;;;;0.63;0.63;;;;;;;18.16;64.02;101556.28;5014027;28;20022;-79
2021/09/14 07:17:19;;;;;;;0.10;0.10;;;;;;;18.20;64.01;101557.88;5016188;28;20037;-76
2021/09/14 07:19:45;;;;;;;0.20;0.20;;;;;;;18.24;64.02;101564.84;5033238;28;20061;-78
2021/09/14 07:22:13;;;;;;;0.65;0.65;;;;;;;18.27;64.20;101554.03;5029661;28;20040;-77
2021/09/14 07:24:39;;;;;;;1.40;0.68;;;;;;;18.26;64.03;101565.69;5032134;28;20068;-76
2021/09/14 07:27:05;;;;;;;0.55;0.55;;;;;;;18.31;63.79;101555.63;5033453;28;20041;-78
2021/09/14 07:29:33;;;;;;;0.20;0.20;;;;;;;18.28;64.12;101563.81;5032880;28;20038;-78
2021/09/14 07:31:59;;;;;;;0.32;0.32;;;;;;;18.35;63.83;101554.56;5032966;28;20432;-81
2021/09/14 07:34:29;;;;;;;1.73;1.45;;;;;;;18.39;64.01;101550.84;5033180;28;20030;-84
2021/09/14 07:36:56;;;;;;;0.40;0.40;;;;;;;18.45;63.96;101556.88;5025692;28;20052;-83
2021/09/14 07:39:22;;;;;;;0.25;0.25;;;;;;;18.47;63.83;101553.19;5023139;28;20038;-85
2021/09/14 07:41:48;;;;;;;0.10;0.10;;;;;;;18.53;63.81;101544.00;5021566;28;20034;-86
2021/09/14 07:44:15;;;;;;;1.88;0.85;;;;;;;18.61;63.63;101544.56;5023346;28;20026;-85
2021/09/14 07:46:41;;;;;;;0.40;0.40;;;;;;;18.65;63.88;101538.09;5022039;28;20034;-86
2021/09/14 07:49:07;;;;;;;0.13;0.13;;;;;;;18.75;63.93;101538.59;5022643;28;20038;-86
2021/09/14 07:51:33;;;;;;;0.10;0.10;;;;;;;18.79;64.36;101552.75;5027303;28;20092;-86
2021/09/14 07:53:59;;;;;;;0.10;0.10;;;;;;;18.88;64.11;101544.31;5020349;28;20031;-86
2021/09/14 07:56:25;;;;;;;0.40;0.40;;;;;;;19.05;64.04;101548.94;5023489;28;20129;-85
2021/09/14 07:58:51;;;;;;;0.10;0.10;;;;;;;19.24;63.66;101551.72;5020063;28;20485;-84
2021/09/14 08:01:17;;;;;;;0.28;0.28;;;;;;;19.39;63.22;101542.06;5023368;28;20039;-76
2021/09/14 08:03:43;;;;;;;1.25;1.15;;;;;;;19.43;63.36;101549.03;5021893;28;20473;-79
2021/09/14 08:06:10;;;;;;;2.45;1.38;;;;;;;19.53;62.89;101542.28;5028894;28;20022;-78
2021/09/14 08:08:36;;;;;;;1.55;1.30;;;;;;;19.67;62.37;101530.88;5024969;28;20484;-76
2021/09/14 08:11:02;;;;;;;0.40;0.40;;;;;;;19.76;62.64;101542.16;5024940;28;20484;-77
2021/09/14 08:13:28;;;;;;;0.20;0.20;;;;;;;19.83;62.28;101549.88;5031957;28;20031;-79
2021/09/14 08:15:54;;;;;;;0.30;0.30;;;;;;;19.90;62.40;101538.81;5032405;28;20025;-82
2021/09/14 08:18:20;;;;;;;0.30;0.30;;;;;;;19.98;62.29;101542.88;5032438;28;20026;-79
2021/09/14 08:20:46;;;;;;;0.70;0.70;;;;;;;20.04;62.15;101542.59;5028590;28;20041;-82
2021/09/14 08:23:12;;;;;;;0.20;0.20;;;;;;;20.16;62.21;101551.00;5026428;28;20431;-82
2021/09/14 08:25:40;;;;;;;0.10;0.10;;;;;;;20.30;61.99;101539.56;5022910;28;20033;-83
2021/09/14 08:28:06;;;;;;;0.38;0.38;;;;;;;20.43;61.72;101529.91;5018452;28;20046;-80
2021/09/14 08:30:32;;;;;;;0.10;0.10;;;;;;;20.55;60.87;101525.75;5020942;28;20068;-81
2021/09/14 08:32:58;;;;;;;1.98;1.42;;;;;;;20.68;60.96;101526.84;5031084;28;20040;-78
2021/09/14 08:35:25;;;;;;;0.20;0.20;;;;;;;20.81;61.22;101526.22;5032536;28;20026;-86
2021/09/14 08:37:51;;;;;;;0.15;0.15;;;;;;;20.85;60.97;101535.91;5032201;28;20115;-86
2021/09/14 08:40:17;;;;;;;0.30;0.30;;;;;;;20.91;60.14;101542.78;5032303;28;20030;-86
2021/09/14 08:42:43;;;;;;;0.20;0.20;;;;;;;20.93;60.42;101540.88;5032593;28;20029;-86
2021/09/14 08:45:11;;;;;;;1.20;1.20;;;;;;;21.03;60.13;101538.59;5032563;28;20033;-86
2021/09/14 08:47:39;;;;;;;2.13;2.03;;;;;;;21.16;60.28;101543.22;5020043;28;20061;-85
2021/09/14 08:50:07;;;;;;;0.50;0.50;;;;;;;21.25;60.36;101541.00;5012486;28;20102;-75
2021/09/14 08:52:34;;;;;;;0.55;0.55;;;;;;;21.34;59.45;101535.09;5010812;28;20030;-77
2021/09/14 08:55:00;;;;;;;0.10;0.10;;;;;;;21.46;59.70;101534.44;5012806;28;20437;-78
2021/09/14 08:57:27;;;;;;;0.40;0.40;;;;;;;21.60;59.35;101541.78;5015672;28;20085;-79
2021/09/14 08:59:56;;;;;;;0.82;0.82;;;;;;;21.69;58.95;101535.00;5016365;28;20384;-77
2021/09/14 09:02:23;;;;;;;0.38;0.38;;;;;;;21.70;58.63;101533.19;5015804;28;20381;-82
2021/09/14 09:05:06;;;;;;;0.10;0.10;;;;;;;21.92;58.87;101540.91;5016290;28;20042;-82
2021/09/14 09:07:35;;;;;;;0.20;0.20;;;;;;;21.83;57.34;101544.16;5016281;28;20041;-82
2021/09/14 09:12:48;;;;;;;1.65;1.10;;;;;;;22.19;57.93;101527.66;5090137;27;20465;-82
2021/09/14 09:15:33;;;;;;;0.98;0.98;;;;;;;22.43;57.81;101532.63;5070365;28;20443;-82
2021/09/14 09:18:07;;;;;;;0.70;0.70;;;;;;;22.53;57.66;101533.84;5066241;28;20033;-82
2021/09/14 09:20:35;;;;;;;0.50;0.50;;;;;;;22.60;57.17;101534.31;5050380;28;20060;-82
2021/09/14 09:23:06;;;;;;;1.80;1.50;;;;;;;22.69;57.26;101536.50;5049805;28;20063;-78
2021/09/14 09:25:33;;;;;;;0.68;0.68;;;;;;;22.81;56.44;101540.25;5049911;28;20029;-79
2021/09/14 09:28:11;;;;;;;1.17;0.57;;;;;;;23.00;56.48;101523.78;5048584;28;20102;-80
2021/09/14 09:30:41;;;;;;;0.38;0.38;;;;;;;23.12;56.48;101527.56;5049664;28;20029;-78
2021/09/14 09:33:11;;;;;;;0.20;0.20;;;;;;;23.18;55.18;101523.63;5049397;28;20064;-78
2021/09/14 09:35:39;;;;;;;0.57;0.57;;;;;;;23.26;55.63;101519.50;5049801;28;20399;-78
2021/09/14 09:38:07;;;;;;;0.30;0.30;;;;;;;23.40;55.76;101509.63;5049411;28;20530;-78
2021/09/14 09:40:36;;;;;;;0.10;0.10;;;;;;;23.38;54.84;101506.19;5049613;28;20025;-79
2021/09/14 09:43:07;;;;;;;0.52;0.52;;;;;;;23.52;55.45;101505.28;5049510;28;20057;-77
2021/09/14 09:45:49;;;;;;;0.60;0.60;;;;;;;23.57;53.94;101512.13;5049625;28;20027;-77
2021/09/14 09:48:16;;;;;;;0.25;0.25;;;;;;;23.57;54.86;101522.94;5049213;28;20112;-78
2021/09/14 09:50:43;;;;;;;0.80;0.80;;;;;;;23.71;54.98;101521.19;5049497;28;20112;-77
2021/09/14 09:53:10;;;;;;;0.77;0.77;;;;;;;23.66;54.37;101520.63;5048982;28;20079;-77
2021/09/14 09:55:38;;;;;;;1.35;1.27;;;;;;;23.63;55.17;101518.09;5049719;28;20067;-77
2021/09/14 09:58:05;;;;;;;0.32;0.32;;;;;;;23.68;55.50;101507.88;5049300;28;20031;-83
2021/09/14 10:00:34;;;;;;;0.10;0.10;;;;;;;23.81;55.38;101503.38;5049491;28;20025;-82
2021/09/14 10:03:06;;;;;;;0.85;0.85;;;;;;;23.84;55.02;101497.78;5049063;28;20476;-81
2021/09/14 10:05:36;;;;;;;0.68;0.38;;;;;;;24.02;54.60;101505.69;5049457;28;20037;-81
2021/09/14 10:08:08;;;;;;;0.63;0.63;;;;;;;24.13;54.54;101495.00;5049487;28;20032;-82
2021/09/14 10:10:37;;;;;;;0.10;0.10;;;;;;;24.25;54.05;101493.31;5049054;28;20029;-81
2021/09/14 10:13:04;;;;;;;4.07;1.00;;;;;;;24.38;54.08;101486.06;5048810;28;20040;-81
2021/09/14 10:15:46;;;;;;;0.20;0.20;;;;;;;24.60;53.72;101490.03;5047761;28;20029;-81
2021/09/14 10:18:12;;;;;;;0.10;0.10;;;;;;;24.68;53.65;101486.81;5049155;28;20114;-80
2021/09/14 10:20:42;;;;;;;0.17;0.17;;;;;;;24.70;52.29;101485.72;5049344;28;20095;-81
2021/09/14 10:23:17;;;;;;;0.40;0.40;;;;;;;24.87;52.67;101480.94;5040578;28;20030;-81
2021/09/14 10:25:46;;;;;;;0.38;0.38;;;;;;;24.89;52.65;101483.59;5035717;28;20057;-81
2021/09/14 10:28:15;;;;;;;1.55;0.85;;;;;;;24.83;49.29;101493.00;5035360;28;20127;-81
2021/09/14 10:30:43;;;;;;;1.20;0.43;;;;;;;25.03;51.89;101484.34;5035135;28;20026;-80
2021/09/14 10:33:29;;;;;;;0.20;0.20;;;;;;;25.11;50.05;101483.78;5035510;28;20025;-81
2021/09/14 10:35:56;;;;;;;0.75;0.75;;;;;;;25.10;51.35;101479.31;5035391;28;20025;-81
2021/09/14 10:38:23;;;;;;;0.90;0.82;;;;;;;25.20;51.55;101474.97;5033961;28;20042;-82
2021/09/14 10:40:52;;;;;;;0.10;0.10;;;;;;;25.25;50.63;101481.94;5035253;28;20025;-81
2021/09/14 10:43:33;;;;;;;4.00;0.82;;;;;;;25.46;49.38;101479.50;5035160;28;20030;-82
2021/09/14 10:46:01;;;;;;;0.40;0.40;;;;;;;25.45;50.60;101477.78;5035397;28;20475;-82
2021/09/14 10:48:31;;;;;;;0.10;0.10;;;;;;;25.54;49.78;101468.09;5035481;28;20030;-83
2021/09/14 10:51:10;;;;;;;0.35;0.35;;;;;;;25.60;48.96;101464.94;5035188;28;20090;-82
2021/09/14 10:53:37;;;;;;;0.40;0.40;;;;;;;25.62;49.77;101453.00;5034782;28;20511;-82
2021/09/14 10:56:03;;;;;;;0.10;0.10;;;;;;;25.72;49.10;101461.31;5035004;28;20044;-82
2021/09/14 10:58:41;;;;;;;0.10;0.10;;;;;;;25.86;48.04;101448.53;5035029;28;20030;-84
2021/09/14 11:01:09;;;;;;;2.63;0.75;;;;;;;25.76;47.03;101457.38;5034824;28;20033;-82
2021/09/14 11:03:35;;;;;;;1.40;1.30;;;;;;;25.88;48.14;101449.28;5034784;28;20088;-81
2021/09/14 11:06:02;;;;;;;0.30;0.30;;;;;;;26.00;47.37;101438.38;5034998;28;20464;-82
2021/09/14 11:08:28;;;;;;;0.10;0.10;;;;;;;26.08;48.33;101428.81;5034855;28;20052;-82
2021/09/14 11:11:00;;;;;;;0.40;0.40;;;;;;;26.15;48.38;101432.78;5034681;28;20033;-82
2021/09/14 11:13:29;;;;;;;0.63;0.63;;;;;;;26.20;47.79;101425.16;5034567;28;20135;-82
2021/09/14 11:15:59;;;;;;;0.20;0.20;;;;;;;26.41;48.49;101424.47;5034774;28;20056;-81
2021/09/14 11:18:26;;;;;;;0.20;0.20;;;;;;;26.57;47.18;101424.13;5034565;28;20025;-83
2021/09/14 11:21:05;;;;;;;1.15;1.13;;;;;;;26.59;46.56;101419.44;5034013;28;20040;-83
2021/09/14 11:23:31;;;;;;;1.10;0.47;;;;;;;26.74;46.92;101426.41;5034575;28;20034;-84
2021/09/14 11:25:58;;;;;;;0.30;0.30;;;;;;;26.67;47.11;101424.25;5035626;28;20202;-82
2021/09/14 11:28:24;;;;;;;0.47;0.47;;;;;;;26.81;46.89;101418.63;5033454;28;20113;-82
2021/09/14 11:33:38;;;;;;;0.65;0.65;;;;;;;27.02;46.61;101413.31;5059065;27;20461;-82
2021/09/14 11:36:08;;;;;;;0.50;0.50;;;;;;;27.13;46.61;101416.03;5061418;28;20036;-82
2021/09/14 11:38:35;;;;;;;0.50;0.50;;;;;;;27.09;46.31;101414.53;5059308;28;20038;-83
2021/09/14 11:41:07;;;;;;;0.10;0.10;;;;;;;27.31;46.14;101417.38;5054572;28;20037;-82
2021/09/14 11:43:35;;;;;;;0.17;0.17;;;;;;;27.33;46.29;101408.09;5049985;28;20531;-82
2021/09/14 11:46:19;;;;;;;0.10;0.10;;;;;;;27.50;45.86;101409.41;5050118;28;20026;-82
2021/09/14 11:51:40;;;;;;;0.47;0.40;;;;;;;27.46;46.16;101404.38;5089941;28;20952;-82
2021/09/14 11:54:12;;;;;;;0.47;0.47;;;;;;;27.46;45.66;101398.94;5070136;28;20029;-81
2021/09/14 11:56:38;;;;;;;0.57;0.57;;;;;;;27.47;45.46;101395.22;5063880;28;20115;-85
2021/09/14 11:59:15;;;;;;;2.00;0.52;;;;;;;27.57;45.70;101396.19;5056747;28;20484;-88
2021/09/14 12:01:43;;;;;;;1.67;1.35;;;;;;;27.59;45.67;101388.72;5049901;28;20060;-84
2021/09/14 12:04:16;;;;;;;0.50;0.50;;;;;;;27.85;45.60;101382.94;5049687;28;20108;-86
2021/09/14 12:06:51;;;;;;;5.22;1.60;;;;;;;27.97;44.80;101386.50;5049901;28;20029;-85
2021/09/14 12:09:20;;;;;;;0.75;0.57;;;;;;;27.96;44.73;101382.88;5048299;28;20033;-84
2021/09/14 12:11:46;;;;;;;0.52;0.52;;;;;;;27.93;44.33;101375.00;5049963;28;20056;-85
2021/09/14 12:14:19;;;;;;;0.45;0.45;;;;;;;27.93;44.31;101378.56;5049835;28;20387;-87
2021/09/14 12:16:51;;;;;;;0.10;0.10;;;;;;;28.01;43.65;101379.78;5049547;28;20128;-78
2021/09/14 12:19:18;;;;;;;0.10;0.10;;;;;;;28.09;43.74;101386.31;5049976;28;20056;-86
2021/09/14 12:21:44;;;;;;;1.45;1.38;;;;;;;28.06;43.95;101375.72;5048830;28;20033;-86
2021/09/14 12:24:10;;;;;;;0.32;0.32;;;;;;;28.26;45.03;101373.09;5049615;28;20101;-86
2021/09/14 12:26:40;;;;;;;0.10;0.10;;;;;;;28.20;43.56;101370.91;5049459;28;20380;-86
2021/09/14 12:29:09;;;;;;;1.30;1.20;;;;;;;28.35;44.16;101375.03;5049201;28;20029;-86
2021/09/14 12:31:39;;;;;;;0.20;0.20;;;;;;;28.38;43.74;101373.91;5049536;28;20041;-86